createdAt,value
2024-04-15T00:01:24.991Z,9.20
2024-04-15T00:03:51.643Z,9.42
2024-04-15T00:06:18.566Z,9.49
2024-04-15T00:08:45.195Z,9.54
2024-04-15T00:11:13.061Z,9.53
2024-04-15T00:13:40.001Z,9.49
2024-04-15T00:16:10.824Z,9.50
2024-04-15T00:18:38.636Z,9.67
2024-04-15T00:21:09.933Z,9.51
2024-04-15T00:23:36.615Z,9.27
2024-04-15T00:26:03.988Z,9.09
2024-04-15T00:28:30.954Z,8.85
2024-04-15T00:30:57.962Z,8.55
2024-04-15T00:33:25.083Z,8.24
2024-04-15T00:35:51.851Z,8.02
2024-04-15T00:38:18.693Z,8.34
2024-04-15T00:40:45.535Z,8.09
2024-04-15T00:43:12.369Z,8.17
2024-04-15T00:45:39.813Z,8.07
2024-04-15T00:48:09.163Z,8.35
2024-04-15T00:50:38.957Z,8.49
2024-04-15T00:53:07.707Z,8.21
2024-04-15T00:55:37.005Z,8.00
2024-04-15T00:58:04.764Z,7.85
2024-04-15T01:00:32.140Z,7.78
2024-04-15T01:02:58.932Z,7.86
2024-04-15T01:05:25.708Z,7.80
2024-04-15T01:07:52.455Z,7.87
2024-04-15T01:10:19.753Z,7.80
2024-04-15T01:12:46.626Z,8.19
2024-04-15T01:15:13.346Z,8.18
2024-04-15T01:17:40.166Z,8.42
2024-04-15T01:20:07.210Z,8.41
2024-04-15T01:22:49.714Z,8.02
2024-04-15T01:25:16.479Z,7.98
2024-04-15T01:27:43.361Z,7.89
2024-04-15T01:30:10.586Z,7.68
2024-04-15T01:32:37.282Z,7.69
2024-04-15T01:35:04.177Z,7.89
2024-04-15T01:37:30.814Z,8.17
2024-04-15T01:39:57.580Z,8.01
2024-04-15T01:42:24.341Z,7.90
2024-04-15T01:44:51.003Z,7.82
2024-04-15T01:47:17.726Z,7.91
2024-04-15T01:49:44.461Z,7.91
2024-04-15T01:52:11.231Z,8.13
2024-04-15T01:54:37.958Z,8.11
2024-04-15T01:57:04.760Z,7.96
2024-04-15T01:59:31.422Z,8.09
2024-04-15T02:01:58.009Z,8.17
2024-04-15T02:04:24.737Z,8.04
2024-04-15T02:06:51.817Z,8.04
2024-04-15T02:09:19.378Z,7.94
2024-04-15T02:11:46.045Z,7.81
2024-04-15T02:14:12.683Z,7.77
2024-04-15T02:16:39.424Z,8.01
2024-04-15T02:19:06.024Z,8.00
2024-04-15T02:21:32.996Z,7.92
2024-04-15T02:23:59.744Z,7.85
2024-04-15T02:26:26.516Z,7.82
2024-04-15T02:28:53.186Z,7.85
2024-04-15T02:31:19.850Z,7.90
2024-04-15T02:33:46.625Z,7.80
2024-04-15T02:36:13.581Z,7.55
2024-04-15T02:38:40.218Z,7.52
2024-04-15T02:41:06.887Z,7.70
2024-04-15T02:43:33.494Z,7.65
2024-04-15T02:46:00.380Z,7.65
2024-04-15T02:48:27.075Z,7.59
2024-04-15T02:50:53.691Z,7.56
2024-04-15T02:53:20.319Z,7.55
2024-04-15T02:55:46.948Z,7.64
2024-04-15T02:58:13.671Z,7.55
2024-04-15T03:00:40.444Z,7.20
2024-04-15T03:03:07.111Z,7.02
2024-04-15T03:05:34.473Z,6.78
2024-04-15T03:08:01.093Z,6.93
2024-04-15T03:10:28.186Z,6.78
2024-04-15T03:12:56.292Z,6.50
2024-04-15T03:15:22.999Z,6.67
2024-04-15T03:17:50.272Z,6.65
2024-04-15T03:20:18.087Z,6.53
2024-04-15T03:22:51.405Z,6.61
2024-04-15T03:25:22.229Z,6.65
2024-04-15T03:27:50.124Z,6.46
2024-04-15T03:30:17.246Z,6.49
2024-04-15T03:32:44.030Z,6.58
2024-04-15T03:35:15.889Z,6.57
2024-04-15T03:37:43.878Z,6.43
2024-04-15T03:40:11.582Z,6.70
2024-04-15T03:42:38.362Z,6.62
2024-04-15T03:45:05.703Z,6.74
2024-04-15T03:47:32.702Z,6.61
2024-04-15T03:49:59.364Z,6.55
2024-04-15T03:52:26.040Z,6.63
2024-04-15T03:54:52.696Z,6.60
2024-04-15T03:57:20.214Z,6.56
2024-04-15T03:59:47.151Z,6.33
2024-04-15T04:02:13.916Z,6.23
2024-04-15T04:04:41.845Z,6.12
2024-04-15T04:07:08.724Z,6.15
2024-04-15T04:09:35.353Z,6.26
2024-04-15T04:12:01.968Z,6.25
2024-04-15T04:14:29.412Z,6.27
2024-04-15T04:16:55.987Z,6.27
2024-04-15T04:19:23.450Z,6.17
2024-04-15T04:21:50.163Z,5.87
2024-04-15T04:24:16.849Z,5.56
2024-04-15T04:26:43.479Z,5.68
2024-04-15T04:29:10.304Z,5.75
2024-04-15T04:31:40.389Z,6.08
2024-04-15T04:34:07.081Z,5.81
2024-04-15T04:36:33.714Z,5.93
2024-04-15T04:39:00.348Z,5.90
2024-04-15T04:41:27.004Z,5.87
2024-04-15T04:43:54.493Z,6.14
2024-04-15T04:46:21.182Z,6.19
2024-04-15T04:48:47.876Z,6.25
2024-04-15T04:51:14.512Z,6.42
2024-04-15T04:53:41.173Z,6.42
2024-04-15T04:56:08.870Z,6.46
2024-04-15T04:58:35.441Z,6.19
2024-04-15T05:01:11.715Z,6.32
2024-04-15T05:03:49.459Z,6.43
2024-04-15T05:06:17.716Z,6.38
2024-04-15T05:08:46.442Z,6.04
2024-04-15T05:11:13.799Z,5.93
2024-04-15T05:13:40.652Z,5.61
2024-04-15T05:16:08.660Z,5.89
2024-04-15T05:18:37.322Z,5.95
2024-04-15T05:21:05.509Z,6.12
2024-04-15T05:23:32.556Z,6.51
2024-04-15T05:26:01.535Z,6.80
2024-04-15T05:28:28.426Z,6.74
2024-04-15T05:30:57.283Z,6.81
2024-04-15T05:33:24.872Z,6.71
2024-04-15T05:35:51.768Z,6.92
2024-04-15T05:38:18.699Z,7.00
2024-04-15T05:40:46.350Z,6.96
2024-04-15T05:43:14.409Z,7.57
2024-04-15T05:45:42.012Z,7.30
2024-04-15T05:48:09.066Z,7.60
2024-04-15T05:50:35.714Z,7.94
2024-04-15T05:53:02.773Z,7.88
2024-04-15T05:55:29.403Z,8.21
2024-04-15T05:57:56.018Z,8.10
2024-04-15T06:00:25.172Z,8.37
2024-04-15T06:02:51.821Z,8.35
2024-04-15T06:05:18.763Z,8.26
2024-04-15T06:07:45.437Z,8.27
2024-04-15T06:10:12.412Z,7.55
2024-04-15T06:12:41.129Z,7.79
2024-04-15T06:15:11.044Z,8.05
2024-04-15T06:17:38.083Z,8.22
2024-04-15T06:20:05.167Z,8.28
2024-04-15T06:22:31.871Z,8.99
2024-04-15T06:24:58.540Z,8.84
2024-04-15T06:27:25.144Z,9.15
2024-04-15T06:29:51.748Z,9.30
2024-04-15T06:32:18.369Z,8.87
2024-04-15T06:34:45.008Z,9.74
2024-04-15T06:37:11.676Z,9.45
2024-04-15T06:39:38.894Z,9.99
2024-04-15T06:42:05.635Z,10.75
2024-04-15T06:44:32.919Z,10.80
2024-04-15T06:46:59.754Z,10.08
2024-04-15T06:49:26.574Z,10.95
2024-04-15T06:51:53.266Z,11.05
2024-04-15T06:54:19.947Z,11.41
2024-04-15T06:56:46.564Z,11.38
2024-04-15T06:59:13.569Z,11.19
2024-04-15T07:01:40.581Z,12.37
2024-04-15T07:04:08.388Z,12.61
2024-04-15T07:06:35.247Z,11.76
2024-04-15T07:09:01.939Z,12.52
2024-04-15T07:11:28.889Z,12.86
2024-04-15T07:13:55.631Z,12.27
2024-04-15T07:16:22.459Z,12.81
2024-04-15T07:18:49.206Z,13.14
2024-04-15T07:21:16.014Z,13.11
2024-04-15T07:23:46.031Z,12.66
2024-04-15T07:26:12.902Z,12.85
2024-04-15T07:28:39.518Z,12.68
2024-04-15T07:31:07.144Z,12.86
2024-04-15T07:33:33.919Z,12.68
2024-04-15T07:36:01.775Z,12.52
2024-04-15T07:38:28.701Z,13.05
2024-04-15T07:40:55.396Z,12.73
2024-04-15T07:43:22.177Z,12.49
2024-04-15T07:45:49.082Z,13.56
2024-04-15T07:48:16.625Z,13.31
2024-04-15T07:50:43.513Z,12.80
2024-04-15T07:53:10.389Z,13.06
2024-04-15T07:55:37.034Z,12.44
2024-04-15T07:58:03.946Z,12.46
2024-04-15T08:00:30.583Z,13.10
2024-04-15T08:02:57.522Z,14.46
2024-04-15T08:05:24.156Z,14.36
2024-04-15T08:07:53.461Z,14.28
2024-04-15T08:10:20.444Z,14.99
2024-04-15T08:12:47.570Z,14.82
2024-04-15T08:15:14.547Z,14.91
2024-04-15T08:17:41.275Z,13.82
2024-04-15T08:20:09.347Z,13.50
2024-04-15T08:22:36.011Z,13.24
2024-04-15T08:25:10.031Z,13.37
2024-04-15T08:27:38.773Z,12.93
2024-04-15T08:30:06.068Z,12.46
2024-04-15T08:32:33.290Z,12.55
2024-04-15T08:35:00.093Z,12.71
2024-04-15T08:37:26.994Z,13.92
2024-04-15T08:39:53.746Z,14.18
2024-04-15T08:42:31.607Z,13.50
2024-04-15T08:45:00.749Z,14.99
2024-04-15T08:47:31.993Z,14.97
2024-04-15T08:49:59.313Z,15.24
2024-04-15T08:52:26.232Z,15.66
2024-04-15T08:54:53.215Z,16.19
2024-04-15T08:57:20.921Z,15.80
2024-04-15T08:59:47.577Z,15.85
2024-04-15T09:02:17.595Z,14.87
2024-04-15T09:04:44.722Z,15.36
2024-04-15T09:07:11.870Z,15.42
2024-04-15T09:09:38.605Z,15.61
2024-04-15T09:12:05.482Z,16.56
2024-04-15T09:14:33.775Z,15.32
2024-04-15T09:17:02.635Z,16.17
2024-04-15T09:19:30.618Z,15.71
2024-04-15T09:22:03.517Z,15.66
2024-04-15T09:24:30.220Z,17.00
2024-04-15T09:26:56.821Z,16.13
2024-04-15T09:29:23.447Z,16.35
2024-04-15T09:31:50.144Z,16.39
2024-04-15T09:34:17.215Z,15.91
2024-04-15T09:36:46.216Z,15.32
2024-04-15T09:39:14.425Z,14.12
2024-04-15T09:41:43.359Z,14.30
2024-04-15T09:44:13.446Z,13.96
2024-04-15T09:46:42.412Z,14.57
2024-04-15T09:49:11.437Z,13.77
2024-04-15T09:51:42.201Z,13.87
2024-04-15T09:54:10.956Z,14.24
2024-04-15T09:56:48.851Z,13.23
2024-04-15T09:59:16.905Z,13.67
2024-04-15T10:01:46.987Z,14.01
2024-04-15T10:04:25.213Z,13.45
2024-04-15T10:06:59.328Z,13.56
2024-04-15T10:09:26.240Z,13.29
2024-04-15T10:11:53.460Z,13.98
2024-04-15T10:14:23.221Z,13.00
2024-04-15T10:16:50.849Z,12.93
2024-04-15T10:19:26.479Z,13.14
2024-04-15T10:21:53.688Z,13.74
2024-04-15T10:24:32.729Z,14.31
2024-04-15T10:27:00.704Z,14.62
2024-04-15T10:29:29.967Z,14.80
2024-04-15T10:31:58.391Z,14.14
2024-04-15T10:34:27.703Z,14.78
2024-04-15T10:36:56.501Z,14.79
2024-04-15T10:39:25.327Z,15.75
2024-04-15T10:41:52.599Z,14.14
2024-04-15T10:44:19.326Z,14.67
2024-04-15T10:46:47.766Z,14.68
2024-04-15T10:49:15.803Z,14.72
2024-04-15T10:51:44.119Z,15.10
2024-04-15T10:54:10.751Z,16.12
2024-04-15T10:56:37.447Z,16.23
2024-04-15T10:59:04.598Z,16.27
2024-04-15T11:01:31.499Z,15.95
2024-04-15T11:03:58.664Z,16.41
2024-04-15T11:06:25.510Z,16.08
2024-04-15T11:08:52.115Z,16.40
2024-04-15T11:11:21.829Z,17.21
2024-04-15T11:13:49.651Z,17.25
2024-04-15T11:16:16.644Z,17.95
2024-04-15T11:18:43.374Z,18.41
2024-04-15T11:21:10.324Z,17.65
2024-04-15T11:23:37.478Z,15.56
2024-04-15T11:26:06.068Z,15.50
2024-04-15T11:28:34.580Z,15.99
2024-04-15T11:31:02.311Z,16.52
2024-04-15T11:33:29.547Z,15.93
2024-04-15T11:35:56.368Z,16.08
2024-04-15T11:38:23.570Z,15.99
2024-04-15T11:40:51.386Z,14.81
2024-04-15T11:43:19.048Z,14.09
2024-04-15T11:45:52.109Z,15.12
2024-04-15T11:48:19.260Z,15.25
2024-04-15T11:50:45.931Z,14.17
2024-04-15T11:53:12.586Z,15.11
2024-04-15T11:55:39.732Z,15.41
2024-04-15T11:58:08.447Z,14.27
2024-04-15T12:00:35.396Z,14.39
2024-04-15T12:03:02.546Z,14.17
2024-04-15T12:05:29.280Z,14.72
2024-04-15T12:07:57.606Z,15.76
2024-04-15T12:10:24.340Z,16.25
2024-04-15T12:12:51.145Z,16.02
2024-04-15T12:15:17.841Z,15.36
2024-04-15T12:17:45.870Z,15.71
2024-04-15T12:20:12.554Z,16.00
2024-04-15T12:22:39.168Z,16.34
2024-04-15T12:25:08.838Z,16.00
2024-04-15T12:27:40.624Z,15.59
2024-04-15T12:30:10.985Z,16.00
2024-04-15T12:32:41.120Z,16.40
2024-04-15T12:35:08.090Z,15.35
2024-04-15T12:37:35.590Z,15.45
2024-04-15T12:40:06.550Z,15.46
2024-04-15T12:42:33.212Z,14.98
2024-04-15T12:44:59.821Z,14.90
2024-04-15T12:47:26.682Z,15.35
2024-04-15T12:49:53.602Z,15.10
2024-04-15T12:52:20.279Z,14.57
2024-04-15T12:54:49.403Z,12.41
2024-04-15T12:57:17.696Z,11.76
2024-04-15T12:59:44.466Z,11.39
2024-04-15T13:02:11.355Z,10.48
2024-04-15T13:04:38.514Z,10.16
2024-04-15T13:07:05.506Z,10.46
2024-04-15T13:09:32.235Z,10.18
2024-04-15T13:11:59.080Z,10.88
2024-04-15T13:14:25.689Z,11.09
2024-04-15T13:16:52.287Z,10.62
2024-04-15T13:19:19.197Z,10.96
2024-04-15T13:21:46.000Z,11.52
2024-04-15T13:24:12.616Z,11.73
2024-04-15T13:26:39.226Z,11.53
2024-04-15T13:29:05.825Z,12.02
2024-04-15T13:31:32.804Z,12.06
2024-04-15T13:33:59.812Z,11.61
2024-04-15T13:36:26.749Z,11.80
2024-04-15T13:38:53.688Z,11.54
2024-04-15T13:41:20.323Z,11.49
2024-04-15T13:43:47.007Z,11.76
2024-04-15T13:46:14.788Z,12.39
2024-04-15T13:48:41.805Z,12.50
2024-04-15T13:51:08.604Z,12.03
2024-04-15T13:53:35.222Z,12.31
2024-04-15T13:56:02.019Z,12.61
2024-04-15T13:58:29.141Z,12.66
2024-04-15T14:00:57.616Z,13.04
2024-04-15T14:03:24.764Z,12.71
2024-04-15T14:05:52.093Z,12.45
2024-04-15T14:08:19.143Z,11.53
2024-04-15T14:10:46.303Z,11.55
2024-04-15T14:13:14.198Z,10.21
2024-04-15T14:15:41.542Z,9.95
2024-04-15T14:18:08.834Z,9.87
2024-04-15T14:20:35.530Z,9.93
2024-04-15T14:23:02.109Z,10.13
2024-04-15T14:25:28.734Z,10.59
2024-04-15T14:27:55.755Z,10.75
2024-04-15T14:30:22.432Z,11.43
2024-04-15T14:32:50.500Z,11.68
2024-04-15T14:35:18.289Z,11.85
2024-04-15T14:37:46.182Z,12.29
2024-04-15T14:40:21.821Z,12.15
2024-04-15T14:42:51.102Z,12.18
2024-04-15T14:45:18.131Z,12.35
2024-04-15T14:47:46.157Z,12.20
2024-04-15T14:50:13.138Z,12.40
2024-04-15T14:52:39.726Z,12.47
2024-04-15T14:55:06.520Z,11.99
2024-04-15T14:57:33.698Z,12.37
2024-04-15T15:00:00.602Z,12.65
2024-04-15T15:02:27.394Z,12.69
2024-04-15T15:04:54.023Z,12.61
2024-04-15T15:07:20.762Z,12.75
2024-04-15T15:09:47.479Z,12.71
2024-04-15T15:12:14.727Z,12.61
2024-04-15T15:14:41.318Z,12.42
2024-04-15T15:17:09.202Z,12.52
2024-04-15T15:19:36.581Z,12.62
2024-04-15T15:22:03.494Z,12.35
2024-04-15T15:24:30.193Z,11.90
2024-04-15T15:26:56.976Z,11.82
2024-04-15T15:29:23.986Z,11.86
2024-04-15T15:31:50.610Z,11.96
2024-04-15T15:34:17.419Z,11.81
2024-04-15T15:36:44.436Z,11.91
2024-04-15T15:39:11.152Z,12.09
2024-04-15T15:41:37.841Z,12.08
2024-04-15T15:44:04.651Z,11.25
2024-04-15T15:46:31.544Z,11.41
2024-04-15T15:48:58.263Z,10.68
2024-04-15T15:51:24.904Z,11.24
2024-04-15T15:53:51.514Z,11.20
2024-04-15T15:56:18.573Z,11.19
2024-04-15T15:58:45.867Z,11.08
2024-04-15T16:01:12.558Z,11.16
2024-04-15T16:03:39.412Z,11.42
2024-04-15T16:06:08.259Z,11.62
2024-04-15T16:08:34.874Z,11.74
2024-04-15T16:11:01.514Z,11.47
2024-04-15T16:13:28.864Z,11.52
2024-04-15T16:15:55.574Z,11.51
2024-04-15T16:18:22.616Z,11.94
2024-04-15T16:20:49.473Z,12.07
2024-04-15T16:23:16.094Z,12.20
2024-04-15T16:25:42.838Z,12.25
2024-04-15T16:28:09.476Z,12.06
2024-04-15T16:30:36.216Z,12.11
2024-04-15T16:33:03.143Z,12.04
2024-04-15T16:35:29.948Z,11.81
2024-04-15T16:37:56.618Z,11.82
2024-04-15T16:40:23.346Z,11.60
2024-04-15T16:42:49.975Z,11.92
2024-04-15T16:45:17.019Z,11.69
2024-04-15T16:47:44.729Z,11.64
2024-04-15T16:50:11.616Z,11.52
2024-04-15T16:52:39.559Z,11.82
2024-04-15T16:55:06.528Z,11.71
2024-04-15T16:57:33.199Z,11.53
2024-04-15T16:59:59.792Z,11.55
2024-04-15T17:02:27.487Z,11.53
2024-04-15T17:04:54.287Z,11.87
2024-04-15T17:07:21.259Z,11.64
2024-04-15T17:09:48.591Z,11.85
2024-04-15T17:12:15.254Z,11.59
2024-04-15T17:14:42.011Z,11.81
2024-04-15T17:17:11.766Z,11.33
2024-04-15T17:19:39.336Z,11.16
2024-04-15T17:22:06.150Z,11.21
2024-04-15T17:24:32.865Z,10.90
2024-04-15T17:26:59.882Z,10.82
2024-04-15T17:29:27.278Z,11.27
2024-04-15T17:31:54.419Z,11.49
2024-04-15T17:34:21.173Z,11.54
2024-04-15T17:36:47.997Z,11.26
2024-04-15T17:39:14.709Z,11.27
2024-04-15T17:41:41.352Z,11.59
2024-04-15T17:44:09.174Z,11.15
2024-04-15T17:46:37.060Z,11.24
2024-04-15T17:49:03.742Z,11.06
2024-04-15T17:51:30.446Z,11.20
2024-04-15T17:53:57.069Z,11.28
2024-04-15T17:56:24.071Z,11.51
2024-04-15T17:58:50.876Z,11.51
2024-04-15T18:01:17.663Z,11.12
2024-04-15T18:03:45.782Z,11.47
2024-04-15T18:06:12.742Z,11.67
2024-04-15T18:08:39.927Z,11.61
2024-04-15T18:11:06.694Z,11.64
2024-04-15T18:13:33.516Z,11.61
2024-04-15T18:16:00.708Z,11.55
2024-04-15T18:18:30.362Z,11.52
2024-04-15T18:20:59.022Z,11.33
2024-04-15T18:23:25.872Z,11.34
2024-04-15T18:25:52.784Z,11.37
2024-04-15T18:28:20.102Z,11.27
2024-04-15T18:30:46.854Z,11.04
2024-04-15T18:33:13.495Z,10.98
2024-04-15T18:35:40.313Z,11.31
2024-04-15T18:38:08.552Z,11.45
2024-04-15T18:40:35.366Z,11.60
2024-04-15T18:43:02.244Z,11.67
2024-04-15T18:45:28.992Z,11.29
2024-04-15T18:47:55.733Z,11.34
2024-04-15T18:50:24.063Z,10.87
2024-04-15T18:52:50.851Z,10.84
2024-04-15T18:55:17.635Z,10.75
2024-04-15T18:57:44.492Z,10.88
2024-04-15T19:00:11.782Z,10.76
2024-04-15T19:02:38.494Z,10.05
2024-04-15T19:05:05.464Z,10.25
2024-04-15T19:07:32.248Z,9.78
2024-04-15T19:09:59.028Z,10.16
2024-04-15T19:12:25.653Z,9.79
2024-04-15T19:15:05.666Z,10.13
2024-04-15T19:17:38.960Z,9.73
2024-04-15T19:20:06.212Z,9.96
2024-04-15T19:22:33.068Z,9.63
2024-04-15T19:24:59.770Z,9.23
2024-04-15T19:27:26.496Z,8.79
2024-04-15T19:29:53.807Z,8.07
2024-04-15T19:32:20.667Z,7.96
2024-04-15T19:34:49.228Z,7.62
2024-04-15T19:37:16.032Z,7.55
2024-04-15T19:39:43.053Z,7.69
2024-04-15T19:42:09.692Z,7.84
2024-04-15T19:44:36.352Z,7.49
2024-04-15T19:47:03.276Z,7.26
2024-04-15T19:49:30.072Z,7.65
2024-04-15T19:51:56.904Z,7.28
2024-04-15T19:54:23.618Z,7.27
2024-04-15T19:56:51.162Z,7.14
2024-04-15T19:59:17.847Z,7.40
2024-04-15T20:01:44.640Z,6.94
2024-04-15T20:04:11.400Z,6.96
2024-04-15T20:06:38.136Z,7.52
2024-04-15T20:09:05.164Z,7.38
2024-04-15T20:11:31.987Z,7.32
2024-04-15T20:13:58.672Z,7.57
2024-04-15T20:16:25.348Z,7.55
2024-04-15T20:18:55.557Z,7.08
2024-04-15T20:21:22.404Z,7.23
2024-04-15T20:23:49.327Z,7.15
2024-04-15T20:26:16.097Z,7.04
2024-04-15T20:28:42.714Z,7.51
2024-04-15T20:31:09.456Z,7.04
2024-04-15T20:33:36.207Z,7.34
2024-04-15T20:36:03.582Z,7.22
2024-04-15T20:38:31.556Z,7.31
2024-04-15T20:40:59.406Z,6.83
2024-04-15T20:43:26.213Z,7.30
2024-04-15T20:45:52.985Z,7.23
2024-04-15T20:48:19.647Z,7.32
2024-04-15T20:50:46.320Z,7.26
2024-04-15T20:53:13.043Z,7.11
2024-04-15T20:55:39.896Z,7.28
2024-04-15T20:58:06.850Z,7.20
2024-04-15T21:00:33.537Z,7.31
2024-04-15T21:03:01.890Z,7.43
2024-04-15T21:05:28.558Z,7.47
2024-04-15T21:07:55.293Z,7.65
2024-04-15T21:10:23.916Z,7.52
2024-04-15T21:12:50.769Z,7.26
2024-04-15T21:15:17.610Z,7.67
2024-04-15T21:17:44.299Z,7.77
2024-04-15T21:20:11.051Z,7.39
2024-04-15T21:22:37.942Z,7.50
2024-04-15T21:25:05.113Z,7.74
2024-04-15T21:27:31.823Z,7.40
2024-04-15T21:29:58.640Z,7.06
2024-04-15T21:32:25.470Z,7.57
2024-04-15T21:34:52.162Z,7.37
2024-04-15T21:37:18.861Z,7.51
2024-04-15T21:39:46.532Z,7.45
2024-04-15T21:42:13.383Z,7.49
2024-04-15T21:44:40.027Z,7.71
2024-04-15T21:47:10.704Z,7.47
2024-04-15T21:49:37.964Z,7.49
2024-04-15T21:52:05.135Z,7.90
2024-04-15T21:54:32.036Z,7.41
2024-04-15T21:57:01.767Z,7.25
2024-04-15T21:59:29.317Z,7.59
2024-04-15T22:01:56.116Z,7.54
2024-04-15T22:04:23.250Z,7.47
2024-04-15T22:06:49.936Z,7.73
2024-04-15T22:09:17.473Z,7.37
2024-04-15T22:11:44.356Z,7.61
2024-04-15T22:14:11.035Z,7.84
2024-04-15T22:16:37.804Z,7.62
2024-04-15T22:19:04.604Z,7.61
2024-04-15T22:21:31.259Z,8.09
2024-04-15T22:23:57.940Z,7.60
2024-04-15T22:26:24.634Z,7.55
2024-04-15T22:28:51.266Z,7.50
2024-04-15T22:31:17.998Z,7.59
2024-04-15T22:33:44.739Z,7.41
2024-04-15T22:36:11.448Z,7.70
2024-04-15T22:38:38.075Z,7.91
2024-04-15T22:41:04.806Z,7.23
2024-04-15T22:43:31.557Z,7.41
2024-04-15T22:45:58.224Z,7.47
2024-04-15T22:48:24.906Z,7.47
2024-04-15T22:50:51.617Z,7.25
2024-04-15T22:53:18.305Z,7.54
2024-04-15T22:55:45.185Z,7.32
2024-04-15T22:58:11.898Z,7.69
2024-04-15T23:00:38.521Z,7.38
2024-04-15T23:03:05.389Z,7.48
2024-04-15T23:05:32.061Z,7.62
2024-04-15T23:07:59.610Z,7.63
2024-04-15T23:10:26.400Z,7.29
2024-04-15T23:12:53.093Z,7.34
2024-04-15T23:15:19.734Z,7.23
2024-04-15T23:17:46.521Z,7.47
2024-04-15T23:20:13.229Z,7.33
2024-04-15T23:22:39.876Z,7.07
2024-04-15T23:25:09.643Z,6.93
2024-04-15T23:27:39.772Z,7.45
2024-04-15T23:30:07.123Z,7.74
2024-04-15T23:32:33.969Z,7.32
2024-04-15T23:35:00.708Z,7.52
2024-04-15T23:37:27.429Z,7.39
2024-04-15T23:39:54.664Z,7.24
2024-04-15T23:42:21.504Z,7.35
2024-04-15T23:44:48.121Z,7.01
2024-04-15T23:47:14.816Z,7.27
2024-04-15T23:49:42.022Z,7.22
2024-04-15T23:52:08.776Z,7.14
2024-04-15T23:54:35.434Z,7.42
2024-04-15T23:57:02.149Z,6.93
2024-04-15T23:59:28.826Z,7.11
